sensor_id;sensor_type;location;lat;lon;timestamp;P1;durP1;ratioP1;P2;durP2;ratioP2
41643;SDS011;44236;48.098;11.582;2023-08-01T05:33:45;7.38;;;2.75;;
41643;SDS011;44236;48.098;11.582;2023-08-01T05:36:11;5.68;;;2.25;;
41643;SDS011;44236;48.098;11.582;2023-08-01T05:38:36;6.90;;;2.47;;
41643;SDS011;44236;48.098;11.582;2023-08-01T05:41:02;6.00;;;2.55;;
41643;SDS011;44236;48.098;11.582;2023-08-01T05:43:28;5.53;;;2.47;;
41643;SDS011;44236;48.098;11.582;2023-08-01T05:45:53;6.63;;;2.42;;
41643;SDS011;44236;48.098;11.582;2023-08-01T05:48:19;7.22;;;2.60;;
41643;SDS011;44236;48.098;11.582;2023-08-01T05:50:45;8.32;;;2.40;;
41643;SDS011;44236;48.098;11.582;2023-08-01T05:53:10;4.93;;;2.10;;
41643;SDS011;44236;48.098;11.582;2023-08-01T05:55:36;7.60;;;2.30;;
41643;SDS011;44236;48.098;11.582;2023-08-01T05:58:01;5.85;;;2.17;;
41643;SDS011;44236;48.098;11.582;2023-08-01T06:00:27;4.57;;;2.13;;
41643;SDS011;44236;48.098;11.582;2023-08-01T06:02:53;6.40;;;2.58;;
41643;SDS011;44236;48.098;11.582;2023-08-01T06:05:18;4.88;;;2.47;;
41643;SDS011;44236;48.098;11.582;2023-08-01T06:07:44;5.40;;;2.17;;
41643;SDS011;44236;48.098;11.582;2023-08-01T06:10:09;4.53;;;2.35;;
41643;SDS011;44236;48.098;11.582;2023-08-01T06:12:35;6.13;;;2.72;;
41643;SDS011;44236;48.098;11.582;2023-08-01T06:15:01;5.53;;;2.65;;
41643;SDS011;44236;48.098;11.582;2023-08-01T06:17:27;5.60;;;2.80;;
41643;SDS011;44236;48.098;11.582;2023-08-01T06:19:52;10.85;;;2.55;;
41643;SDS011;44236;48.098;11.582;2023-08-01T06:22:19;10.35;;;2.90;;
41643;SDS011;44236;48.098;11.582;2023-08-01T06:24:45;16.77;;;2.72;;
41643;SDS011;44236;48.098;11.582;2023-08-01T06:27:11;3.90;;;2.30;;
41643;SDS011;44236;48.098;11.582;2023-08-01T06:29:36;4.68;;;2.40;;
41643;SDS011;44236;48.098;11.582;2023-08-01T06:32:02;6.00;;;2.55;;
41643;SDS011;44236;48.098;11.582;2023-08-01T06:34:28;12.23;;;2.95;;
41643;SDS011;44236;48.098;11.582;2023-08-01T06:36:54;10.82;;;2.60;;
41643;SDS011;44236;48.098;11.582;2023-08-01T06:39:19;5.63;;;2.85;;
41643;SDS011;44236;48.098;11.582;2023-08-01T06:41:45;7.13;;;3.20;;
41643;SDS011;44236;48.098;11.582;2023-08-01T06:44:11;9.25;;;2.88;;
41643;SDS011;44236;48.098;11.582;2023-08-01T06:46:36;7.78;;;2.67;;
41643;SDS011;44236;48.098;11.582;2023-08-01T06:49:02;7.03;;;2.80;;
41643;SDS011;44236;48.098;11.582;2023-08-01T06:51:27;6.75;;;2.30;;
41643;SDS011;44236;48.098;11.582;2023-08-01T06:53:53;5.25;;;2.88;;
41643;SDS011;44236;48.098;11.582;2023-08-01T06:56:19;5.68;;;2.22;;
41643;SDS011;44236;48.098;11.582;2023-08-01T06:58:45;5.53;;;2.83;;
41643;SDS011;44236;48.098;11.582;2023-08-01T07:01:11;4.85;;;2.40;;
41643;SDS011;44236;48.098;11.582;2023-08-01T07:03:36;8.05;;;2.47;;
41643;SDS011;44236;48.098;11.582;2023-08-01T07:06:02;5.85;;;2.90;;
41643;SDS011;44236;48.098;11.582;2023-08-01T07:08:28;8.45;;;2.42;;
41643;SDS011;44236;48.098;11.582;2023-08-01T07:10:54;7.35;;;2.40;;
41643;SDS011;44236;48.098;11.582;2023-08-01T07:13:19;6.57;;;2.80;;
41643;SDS011;44236;48.098;11.582;2023-08-01T07:15:45;6.15;;;2.45;;
41643;SDS011;44236;48.098;11.582;2023-08-01T07:18:10;6.80;;;2.83;;
41643;SDS011;44236;48.098;11.582;2023-08-01T07:20:36;6.72;;;2.17;;
41643;SDS011;44236;48.098;11.582;2023-08-01T07:23:02;4.00;;;2.10;;
41643;SDS011;44236;48.098;11.582;2023-08-01T07:25:27;9.65;;;2.42;;
41643;SDS011;44236;48.098;11.582;2023-08-01T07:27:53;3.92;;;2.22;;
41643;SDS011;44236;48.098;11.582;2023-08-01T07:30:18;5.32;;;2.55;;
41643;SDS011;44236;48.098;11.582;2023-08-01T07:32:44;11.52;;;3.22;;
41643;SDS011;44236;48.098;11.582;2023-08-01T07:35:10;9.15;;;3.35;;
41643;SDS011;44236;48.098;11.582;2023-08-01T07:37:35;5.18;;;2.67;;
41643;SDS011;44236;48.098;11.582;2023-08-01T07:40:03;5.15;;;2.17;;
41643;SDS011;44236;48.098;11.582;2023-08-01T07:42:30;7.63;;;3.33;;
41643;SDS011;44236;48.098;11.582;2023-08-01T07:44:56;5.60;;;2.45;;
41643;SDS011;44236;48.098;11.582;2023-08-01T07:47:21;4.72;;;2.67;;
41643;SDS011;44236;48.098;11.582;2023-08-01T07:49:48;5.90;;;2.72;;
41643;SDS011;44236;48.098;11.582;2023-08-01T07:52:14;6.03;;;2.60;;
41643;SDS011;44236;48.098;11.582;2023-08-01T07:54:40;4.82;;;2.58;;
41643;SDS011;44236;48.098;11.582;2023-08-01T07:57:05;5.75;;;2.58;;
41643;SDS011;44236;48.098;11.582;2023-08-01T07:59:31;6.68;;;2.95;;
41643;SDS011;44236;48.098;11.582;2023-08-01T08:01:57;4.45;;;2.13;;
41643;SDS011;44236;48.098;11.582;2023-08-01T08:04:22;4.05;;;2.35;;
41643;SDS011;44236;48.098;11.582;2023-08-01T08:06:48;5.55;;;2.70;;
41643;SDS011;44236;48.098;11.582;2023-08-01T08:09:14;8.90;;;2.83;;
41643;SDS011;44236;48.098;11.582;2023-08-01T08:11:39;6.22;;;2.47;;
41643;SDS011;44236;48.098;11.582;2023-08-01T08:14:05;4.65;;;2.40;;
41643;SDS011;44236;48.098;11.582;2023-08-01T08:16:30;6.38;;;2.80;;
41643;SDS011;44236;48.098;11.582;2023-08-01T08:18:56;12.95;;;2.63;;
41643;SDS011;44236;48.098;11.582;2023-08-01T08:21:22;4.20;;;2.22;;
41643;SDS011;44236;48.098;11.582;2023-08-01T08:23:47;6.43;;;2.65;;
41643;SDS011;44236;48.098;11.582;2023-08-01T08:26:13;7.18;;;3.13;;
41643;SDS011;44236;48.098;11.582;2023-08-01T08:28:38;4.72;;;2.25;;
41643;SDS011;44236;48.098;11.582;2023-08-01T08:31:06;6.38;;;2.65;;
41643;SDS011;44236;48.098;11.582;2023-08-01T08:33:32;7.82;;;2.83;;
41643;SDS011;44236;48.098;11.582;2023-08-01T08:35:58;5.68;;;2.80;;
41643;SDS011;44236;48.098;11.582;2023-08-01T08:38:23;6.57;;;2.63;;
41643;SDS011;44236;48.098;11.582;2023-08-01T08:40:55;6.57;;;2.50;;
41643;SDS011;44236;48.098;11.582;2023-08-01T08:43:36;6.72;;;2.83;;
41643;SDS011;44236;48.098;11.582;2023-08-01T08:46:02;6.45;;;3.20;;
41643;SDS011;44236;48.098;11.582;2023-08-01T08:48:29;4.93;;;2.40;;
41643;SDS011;44236;48.098;11.582;2023-08-01T08:50:59;5.40;;;2.60;;
41643;SDS011;44236;48.098;11.582;2023-08-01T08:53:25;5.50;;;2.50;;
41643;SDS011;44236;48.098;11.582;2023-08-01T08:55:51;6.50;;;2.65;;
41643;SDS011;44236;48.098;11.582;2023-08-01T08:58:17;7.20;;;2.63;;
41643;SDS011;44236;48.098;11.582;2023-08-01T09:00:43;5.45;;;2.80;;
41643;SDS011;44236;48.098;11.582;2023-08-01T09:03:09;7.93;;;3.33;;
41643;SDS011;44236;48.098;11.582;2023-08-01T09:06:19;6.63;;;3.10;;
41643;SDS011;44236;48.098;11.582;2023-08-01T09:08:28;7.75;;;3.15;;
41643;SDS011;44236;48.098;11.582;2023-08-01T09:10:57;5.65;;;3.08;;
41643;SDS011;44236;48.098;11.582;2023-08-01T09:13:22;5.88;;;2.95;;
41643;SDS011;44236;48.098;11.582;2023-08-01T09:15:48;8.15;;;2.80;;
41643;SDS011;44236;48.098;11.582;2023-08-01T09:18:14;8.38;;;2.95;;
41643;SDS011;44236;48.098;11.582;2023-08-01T09:20:46;5.95;;;2.85;;
41643;SDS011;44236;48.098;11.582;2023-08-01T09:23:13;4.68;;;2.58;;
41643;SDS011;44236;48.098;11.582;2023-08-01T09:25:40;5.90;;;2.85;;
41643;SDS011;44236;48.098;11.582;2023-08-01T09:28:19;8.10;;;3.65;;
41643;SDS011;44236;48.098;11.582;2023-08-01T09:30:50;9.05;;;3.25;;
41643;SDS011;44236;48.098;11.582;2023-08-01T09:33:17;5.75;;;3.08;;
41643;SDS011;44236;48.098;11.582;2023-08-01T09:35:43;6.10;;;3.30;;
41643;SDS011;44236;48.098;11.582;2023-08-01T09:38:13;7.05;;;2.40;;
41643;SDS011;44236;48.098;11.582;2023-08-01T09:40:41;7.50;;;2.70;;
41643;SDS011;44236;48.098;11.582;2023-08-01T09:43:07;6.07;;;2.90;;
41643;SDS011;44236;48.098;11.582;2023-08-01T09:45:34;5.72;;;2.50;;
41643;SDS011;44236;48.098;11.582;2023-08-01T09:48:00;7.65;;;3.08;;
41643;SDS011;44236;48.098;11.582;2023-08-01T09:50:26;4.40;;;2.50;;
41643;SDS011;44236;48.098;11.582;2023-08-01T09:52:52;6.85;;;3.05;;
41643;SDS011;44236;48.098;11.582;2023-08-01T09:58:10;5.43;;;2.83;;
41643;SDS011;44236;48.098;11.582;2023-08-01T10:00:41;7.97;;;2.45;;
41643;SDS011;44236;48.098;11.582;2023-08-01T10:03:08;4.05;;;2.35;;
41643;SDS011;44236;48.098;11.582;2023-08-01T10:05:34;5.40;;;2.78;;
41643;SDS011;44236;48.098;11.582;2023-08-01T10:08:03;10.02;;;3.35;;
41643;SDS011;44236;48.098;11.582;2023-08-01T10:10:29;5.70;;;2.85;;
41643;SDS011;44236;48.098;11.582;2023-08-01T10:12:56;5.40;;;2.67;;
41643;SDS011;44236;48.098;11.582;2023-08-01T10:15:23;6.47;;;2.90;;
41643;SDS011;44236;48.098;11.582;2023-08-01T10:17:50;7.07;;;2.17;;
41643;SDS011;44236;48.098;11.582;2023-08-01T10:20:16;5.10;;;2.40;;
41643;SDS011;44236;48.098;11.582;2023-08-01T10:22:42;6.65;;;3.55;;
41643;SDS011;44236;48.098;11.582;2023-08-01T10:25:09;5.63;;;2.92;;
41643;SDS011;44236;48.098;11.582;2023-08-01T10:27:36;7.00;;;3.13;;
41643;SDS011;44236;48.098;11.582;2023-08-01T10:30:03;8.82;;;3.60;;
41643;SDS011;44236;48.098;11.582;2023-08-01T10:32:31;7.63;;;2.88;;
41643;SDS011;44236;48.098;11.582;2023-08-01T10:34:58;9.82;;;3.08;;
41643;SDS011;44236;48.098;11.582;2023-08-01T10:37:24;5.45;;;2.75;;
41643;SDS011;44236;48.098;11.582;2023-08-01T10:39:57;8.07;;;2.85;;
41643;SDS011;44236;48.098;11.582;2023-08-01T10:42:23;7.60;;;3.30;;
41643;SDS011;44236;48.098;11.582;2023-08-01T10:44:49;7.28;;;2.92;;
41643;SDS011;44236;48.098;11.582;2023-08-01T10:47:15;8.48;;;2.50;;
41643;SDS011;44236;48.098;11.582;2023-08-01T10:49:51;11.27;;;4.00;;
41643;SDS011;44236;48.098;11.582;2023-08-01T10:52:18;9.68;;;3.45;;
41643;SDS011;44236;48.098;11.582;2023-08-01T10:55:04;9.57;;;3.97;;
41643;SDS011;44236;48.098;11.582;2023-08-01T10:57:31;10.55;;;3.13;;
41643;SDS011;44236;48.098;11.582;2023-08-01T11:00:04;9.02;;;3.28;;
41643;SDS011;44236;48.098;11.582;2023-08-01T11:02:34;16.58;;;4.78;;
41643;SDS011;44236;48.098;11.582;2023-08-01T11:07:27;10.05;;;3.80;;
41643;SDS011;44236;48.098;11.582;2023-08-01T11:12:28;10.82;;;3.47;;
41643;SDS011;44236;48.098;11.582;2023-08-01T11:15:01;9.20;;;3.17;;
41643;SDS011;44236;48.098;11.582;2023-08-01T11:17:27;8.73;;;3.95;;
41643;SDS011;44236;48.098;11.582;2023-08-01T11:20:00;9.52;;;2.80;;
41643;SDS011;44236;48.098;11.582;2023-08-01T11:22:27;7.70;;;2.88;;
41643;SDS011;44236;48.098;11.582;2023-08-01T11:24:53;10.68;;;3.75;;
41643;SDS011;44236;48.098;11.582;2023-08-01T11:27:18;14.50;;;4.03;;
41643;SDS011;44236;48.098;11.582;2023-08-01T11:29:44;20.15;;;4.82;;
41643;SDS011;44236;48.098;11.582;2023-08-01T11:32:10;24.75;;;6.15;;
41643;SDS011;44236;48.098;11.582;2023-08-01T11:34:39;20.20;;;6.70;;
41643;SDS011;44236;48.098;11.582;2023-08-01T11:37:06;31.95;;;9.10;;
41643;SDS011;44236;48.098;11.582;2023-08-01T11:39:32;26.83;;;9.07;;
41643;SDS011;44236;48.098;11.582;2023-08-01T11:41:58;32.08;;;9.95;;
41643;SDS011;44236;48.098;11.582;2023-08-01T11:44:25;36.97;;;10.30;;
41643;SDS011;44236;48.098;11.582;2023-08-01T11:46:51;42.50;;;10.52;;
41643;SDS011;44236;48.098;11.582;2023-08-01T11:49:17;35.28;;;10.80;;
41643;SDS011;44236;48.098;11.582;2023-08-01T11:51:43;39.00;;;9.63;;
41643;SDS011;44236;48.098;11.582;2023-08-01T11:54:10;34.33;;;9.77;;
41643;SDS011;44236;48.098;11.582;2023-08-01T11:56:37;29.67;;;8.18;;
41643;SDS011;44236;48.098;11.582;2023-08-01T11:59:10;32.13;;;9.77;;
41643;SDS011;44236;48.098;11.582;2023-08-01T12:01:40;29.67;;;7.80;;
41643;SDS011;44236;48.098;11.582;2023-08-01T12:04:07;26.27;;;7.07;;
41643;SDS011;44236;48.098;11.582;2023-08-01T12:06:33;24.27;;;7.60;;
41643;SDS011;44236;48.098;11.582;2023-08-01T12:09:09;21.15;;;6.43;;
41643;SDS011;44236;48.098;11.582;2023-08-01T12:11:36;24.42;;;6.75;;
41643;SDS011;44236;48.098;11.582;2023-08-01T12:14:03;28.08;;;6.90;;
41643;SDS011;44236;48.098;11.582;2023-08-01T12:16:46;21.75;;;6.68;;
41643;SDS011;44236;48.098;11.582;2023-08-01T12:19:18;25.00;;;6.35;;
41643;SDS011;44236;48.098;11.582;2023-08-01T12:21:45;29.05;;;5.30;;
41643;SDS011;44236;48.098;11.582;2023-08-01T12:24:11;23.85;;;5.63;;
41643;SDS011;44236;48.098;11.582;2023-08-01T12:26:37;22.15;;;5.15;;
41643;SDS011;44236;48.098;11.582;2023-08-01T12:29:03;15.98;;;4.72;;
41643;SDS011;44236;48.098;11.582;2023-08-01T12:31:28;19.88;;;5.25;;
41643;SDS011;44236;48.098;11.582;2023-08-01T12:33:54;18.42;;;4.80;;
41643;SDS011;44236;48.098;11.582;2023-08-01T12:36:20;18.15;;;4.45;;
41643;SDS011;44236;48.098;11.582;2023-08-01T12:38:46;10.63;;;3.90;;
41643;SDS011;44236;48.098;11.582;2023-08-01T12:41:12;16.00;;;3.92;;
41643;SDS011;44236;48.098;11.582;2023-08-01T12:43:37;12.60;;;3.75;;
41643;SDS011;44236;48.098;11.582;2023-08-01T12:46:03;11.43;;;3.72;;
41643;SDS011;44236;48.098;11.582;2023-08-01T12:48:29;7.80;;;3.15;;
41643;SDS011;44236;48.098;11.582;2023-08-01T12:50:55;10.98;;;3.75;;
41643;SDS011;44236;48.098;11.582;2023-08-01T12:53:21;12.50;;;2.88;;
41643;SDS011;44236;48.098;11.582;2023-08-01T12:55:47;12.85;;;3.80;;
41643;SDS011;44236;48.098;11.582;2023-08-01T12:58:14;7.35;;;2.90;;
41643;SDS011;44236;48.098;11.582;2023-08-01T13:00:40;9.85;;;3.67;;
41643;SDS011;44236;48.098;11.582;2023-08-01T13:03:07;12.38;;;3.30;;
41643;SDS011;44236;48.098;11.582;2023-08-01T13:05:36;8.30;;;3.00;;
41643;SDS011;44236;48.098;11.582;2023-08-01T13:08:03;7.85;;;2.97;;
41643;SDS011;44236;48.098;11.582;2023-08-01T13:10:30;9.98;;;3.13;;
41643;SDS011;44236;48.098;11.582;2023-08-01T13:12:59;5.13;;;2.58;;
41643;SDS011;44236;48.098;11.582;2023-08-01T13:15:25;8.35;;;2.97;;
41643;SDS011;44236;48.098;11.582;2023-08-01T13:17:52;7.93;;;2.35;;
41643;SDS011;44236;48.098;11.582;2023-08-01T13:20:18;4.63;;;2.25;;
41643;SDS011;44236;48.098;11.582;2023-08-01T13:22:45;8.63;;;2.60;;
41643;SDS011;44236;48.098;11.582;2023-08-01T13:25:15;7.72;;;2.75;;
41643;SDS011;44236;48.098;11.582;2023-08-01T13:27:42;7.60;;;2.63;;
41643;SDS011;44236;48.098;11.582;2023-08-01T13:30:08;6.50;;;2.60;;
41643;SDS011;44236;48.098;11.582;2023-08-01T13:32:34;7.22;;;2.50;;
41643;SDS011;44236;48.098;11.582;2023-08-01T13:35:00;10.30;;;2.70;;
41643;SDS011;44236;48.098;11.582;2023-08-01T13:37:26;9.27;;;2.58;;
41643;SDS011;44236;48.098;11.582;2023-08-01T13:39:54;6.30;;;3.22;;
41643;SDS011;44236;48.098;11.582;2023-08-01T13:42:19;10.32;;;2.42;;
41643;SDS011;44236;48.098;11.582;2023-08-01T13:44:45;6.10;;;2.85;;
41643;SDS011;44236;48.098;11.582;2023-08-01T13:47:11;6.70;;;2.42;;
41643;SDS011;44236;48.098;11.582;2023-08-01T13:49:36;5.10;;;2.40;;
41643;SDS011;44236;48.098;11.582;2023-08-01T13:52:03;5.80;;;2.65;;
41643;SDS011;44236;48.098;11.582;2023-08-01T13:54:29;5.53;;;2.20;;
41643;SDS011;44236;48.098;11.582;2023-08-01T13:56:55;7.32;;;2.40;;
41643;SDS011;44236;48.098;11.582;2023-08-01T13:59:20;6.07;;;2.15;;
41643;SDS011;44236;48.098;11.582;2023-08-01T14:01:47;4.97;;;2.42;;
41643;SDS011;44236;48.098;11.582;2023-08-01T14:04:12;7.28;;;2.67;;
41643;SDS011;44236;48.098;11.582;2023-08-01T14:06:41;4.07;;;2.00;;
41643;SDS011;44236;48.098;11.582;2023-08-01T14:09:07;4.35;;;2.10;;
41643;SDS011;44236;48.098;11.582;2023-08-01T14:11:36;7.10;;;2.53;;
41643;SDS011;44236;48.098;11.582;2023-08-01T14:14:02;4.93;;;2.10;;
41643;SDS011;44236;48.098;11.582;2023-08-01T14:16:28;4.57;;;2.00;;
41643;SDS011;44236;48.098;11.582;2023-08-01T14:18:54;3.63;;;1.60;;
41643;SDS011;44236;48.098;11.582;2023-08-01T14:21:20;7.90;;;2.83;;
41643;SDS011;44236;48.098;11.582;2023-08-01T14:23:46;6.15;;;2.25;;
41643;SDS011;44236;48.098;11.582;2023-08-01T14:26:12;5.38;;;2.15;;
41643;SDS011;44236;48.098;11.582;2023-08-01T14:28:38;5.32;;;1.85;;
41643;SDS011;44236;48.098;11.582;2023-08-01T14:31:04;4.97;;;2.22;;
41643;SDS011;44236;48.098;11.582;2023-08-01T14:33:30;6.10;;;1.58;;
41643;SDS011;44236;48.098;11.582;2023-08-01T14:35:56;4.93;;;2.53;;
41643;SDS011;44236;48.098;11.582;2023-08-01T14:38:22;3.30;;;1.60;;
41643;SDS011;44236;48.098;11.582;2023-08-01T14:40:47;3.47;;;1.60;;
41643;SDS011;44236;48.098;11.582;2023-08-01T14:43:13;6.20;;;1.98;;
41643;SDS011;44236;48.098;11.582;2023-08-01T14:45:39;5.63;;;2.65;;
41643;SDS011;44236;48.098;11.582;2023-08-01T14:48:06;5.85;;;2.40;;
41643;SDS011;44236;48.098;11.582;2023-08-01T14:50:32;3.95;;;1.80;;
41643;SDS011;44236;48.098;11.582;2023-08-01T14:52:58;4.03;;;1.95;;
41643;SDS011;44236;48.098;11.582;2023-08-01T14:55:23;3.63;;;1.55;;
41643;SDS011;44236;48.098;11.582;2023-08-01T14:57:49;3.95;;;1.95;;
41643;SDS011;44236;48.098;11.582;2023-08-01T15:00:15;5.25;;;2.30;;
41643;SDS011;44236;48.098;11.582;2023-08-01T15:02:41;5.60;;;2.38;;
41643;SDS011;44236;48.098;11.582;2023-08-01T15:05:06;5.70;;;1.98;;
41643;SDS011;44236;48.098;11.582;2023-08-01T15:07:32;4.63;;;1.90;;
41643;SDS011;44236;48.098;11.582;2023-08-01T15:09:58;6.50;;;1.88;;
41643;SDS011;44236;48.098;11.582;2023-08-01T15:12:24;4.40;;;2.05;;
41643;SDS011;44236;48.098;11.582;2023-08-01T15:14:51;3.35;;;1.70;;
41643;SDS011;44236;48.098;11.582;2023-08-01T15:17:17;2.92;;;1.42;;
41643;SDS011;44236;48.098;11.582;2023-08-01T15:19:43;3.83;;;1.80;;
41643;SDS011;44236;48.098;11.582;2023-08-01T15:22:09;4.28;;;1.70;;
41643;SDS011;44236;48.098;11.582;2023-08-01T15:24:35;4.05;;;2.30;;
41643;SDS011;44236;48.098;11.582;2023-08-01T15:27:00;3.90;;;1.73;;
41643;SDS011;44236;48.098;11.582;2023-08-01T15:29:26;2.45;;;1.38;;
41643;SDS011;44236;48.098;11.582;2023-08-01T15:31:52;3.05;;;1.35;;
41643;SDS011;44236;48.098;11.582;2023-08-01T15:34:20;3.20;;;1.35;;
41643;SDS011;44236;48.098;11.582;2023-08-01T15:36:46;2.55;;;1.40;;
41643;SDS011;44236;48.098;11.582;2023-08-01T15:39:15;2.97;;;1.55;;
41643;SDS011;44236;48.098;11.582;2023-08-01T15:41:41;3.38;;;1.50;;
41643;SDS011;44236;48.098;11.582;2023-08-01T15:44:06;3.08;;;1.50;;
41643;SDS011;44236;48.098;11.582;2023-08-01T15:46:32;3.35;;;1.40;;
41643;SDS011;44236;48.098;11.582;2023-08-01T15:48:58;3.00;;;1.67;;
41643;SDS011;44236;48.098;11.582;2023-08-01T15:51:24;4.13;;;1.58;;
41643;SDS011;44236;48.098;11.582;2023-08-01T15:53:50;8.70;;;2.15;;
41643;SDS011;44236;48.098;11.582;2023-08-01T15:56:16;8.90;;;1.20;;
41643;SDS011;44236;48.098;11.582;2023-08-01T15:58:41;2.92;;;1.30;;
41643;SDS011;44236;48.098;11.582;2023-08-01T16:01:07;2.83;;;1.15;;
41643;SDS011;44236;48.098;11.582;2023-08-01T16:03:36;3.08;;;1.40;;
41643;SDS011;44236;48.098;11.582;2023-08-01T16:06:03;3.30;;;1.65;;
41643;SDS011;44236;48.098;11.582;2023-08-01T16:08:29;3.38;;;1.42;;
41643;SDS011;44236;48.098;11.582;2023-08-01T16:10:55;2.30;;;1.00;;
41643;SDS011;44236;48.098;11.582;2023-08-01T16:13:21;3.53;;;1.30;;
41643;SDS011;44236;48.098;11.582;2023-08-01T16:15:46;5.97;;;1.17;;
41643;SDS011;44236;48.098;11.582;2023-08-01T16:18:14;3.53;;;1.00;;
41643;SDS011;44236;48.098;11.582;2023-08-01T16:20:40;2.17;;;0.85;;
41643;SDS011;44236;48.098;11.582;2023-08-01T16:23:06;9.70;;;1.95;;
41643;SDS011;44236;48.098;11.582;2023-08-01T16:25:31;2.47;;;1.27;;
41643;SDS011;44236;48.098;11.582;2023-08-01T16:27:57;2.30;;;1.10;;
41643;SDS011;44236;48.098;11.582;2023-08-01T16:30:23;6.72;;;1.65;;
41643;SDS011;44236;48.098;11.582;2023-08-01T16:32:49;5.93;;;1.30;;
41643;SDS011;44236;48.098;11.582;2023-08-01T16:35:17;2.25;;;1.10;;
41643;SDS011;44236;48.098;11.582;2023-08-01T16:37:43;5.38;;;1.30;;
41643;SDS011;44236;48.098;11.582;2023-08-01T16:40:09;1.63;;;0.80;;
41643;SDS011;44236;48.098;11.582;2023-08-01T16:42:35;3.50;;;0.88;;
41643;SDS011;44236;48.098;11.582;2023-08-01T16:45:02;4.00;;;1.20;;
41643;SDS011;44236;48.098;11.582;2023-08-01T16:47:30;3.63;;;0.82;;
41643;SDS011;44236;48.098;11.582;2023-08-01T16:49:56;3.85;;;0.98;;
41643;SDS011;44236;48.098;11.582;2023-08-01T16:52:23;3.45;;;0.88;;
41643;SDS011;44236;48.098;11.582;2023-08-01T16:54:48;2.50;;;0.95;;
41643;SDS011;44236;48.098;11.582;2023-08-01T16:57:14;1.85;;;1.10;;
41643;SDS011;44236;48.098;11.582;2023-08-01T16:59:40;4.93;;;1.20;;
41643;SDS011;44236;48.098;11.582;2023-08-01T17:02:06;5.80;;;1.00;;
41643;SDS011;44236;48.098;11.582;2023-08-01T17:04:33;3.50;;;1.00;;
41643;SDS011;44236;48.098;11.582;2023-08-01T17:06:59;2.05;;;1.02;;
41643;SDS011;44236;48.098;11.582;2023-08-01T17:09:27;1.38;;;0.80;;
41643;SDS011;44236;48.098;11.582;2023-08-01T17:11:57;4.75;;;1.17;;
41643;SDS011;44236;48.098;11.582;2023-08-01T17:14:23;3.28;;;0.85;;
41643;SDS011;44236;48.098;11.582;2023-08-01T17:16:49;3.95;;;1.25;;
41643;SDS011;44236;48.098;11.582;2023-08-01T17:19:15;2.85;;;1.30;;
41643;SDS011;44236;48.098;11.582;2023-08-01T17:21:41;6.30;;;1.83;;
41643;SDS011;44236;48.098;11.582;2023-08-01T17:24:07;3.83;;;1.10;;
41643;SDS011;44236;48.098;11.582;2023-08-01T17:26:33;3.83;;;1.00;;
41643;SDS011;44236;48.098;11.582;2023-08-01T17:28:59;9.27;;;1.42;;
41643;SDS011;44236;48.098;11.582;2023-08-01T17:31:26;4.30;;;1.23;;
41643;SDS011;44236;48.098;11.582;2023-08-01T17:33:51;8.23;;;1.10;;
41643;SDS011;44236;48.098;11.582;2023-08-01T17:36:17;3.35;;;1.35;;
41643;SDS011;44236;48.098;11.582;2023-08-01T17:38:43;2.53;;;1.02;;
41643;SDS011;44236;48.098;11.582;2023-08-01T17:41:42;2.70;;;1.05;;
41643;SDS011;44236;48.098;11.582;2023-08-01T17:44:01;5.88;;;2.05;;
41643;SDS011;44236;48.098;11.582;2023-08-01T17:46:27;4.38;;;1.00;;
41643;SDS011;44236;48.098;11.582;2023-08-01T17:48:53;4.70;;;1.13;;
41643;SDS011;44236;48.098;11.582;2023-08-01T17:51:19;5.68;;;1.10;;
41643;SDS011;44236;48.098;11.582;2023-08-01T17:53:47;2.47;;;1.25;;
41643;SDS011;44236;48.098;11.582;2023-08-01T17:56:13;4.82;;;0.88;;
41643;SDS011;44236;48.098;11.582;2023-08-01T17:58:41;3.88;;;1.25;;
41643;SDS011;44236;48.098;11.582;2023-08-01T18:01:06;2.03;;;0.77;;
41643;SDS011;44236;48.098;11.582;2023-08-01T18:03:33;4.45;;;0.98;;
41643;SDS011;44236;48.098;11.582;2023-08-01T18:06:10;2.58;;;1.08;;
41643;SDS011;44236;48.098;11.582;2023-08-01T18:08:37;2.78;;;1.48;;
41643;SDS011;44236;48.098;11.582;2023-08-01T18:11:10;2.47;;;1.00;;
41643;SDS011;44236;48.098;11.582;2023-08-01T18:13:38;1.80;;;0.88;;
41643;SDS011;44236;48.098;11.582;2023-08-01T18:16:08;2.97;;;1.00;;
41643;SDS011;44236;48.098;11.582;2023-08-01T18:18:34;3.90;;;1.00;;
41643;SDS011;44236;48.098;11.582;2023-08-01T18:21:00;3.33;;;1.27;;
41643;SDS011;44236;48.098;11.582;2023-08-01T18:23:27;5.00;;;1.35;;
41643;SDS011;44236;48.098;11.582;2023-08-01T18:25:53;2.50;;;1.02;;
41643;SDS011;44236;48.098;11.582;2023-08-01T18:28:18;4.32;;;1.05;;
41643;SDS011;44236;48.098;11.582;2023-08-01T18:30:44;3.80;;;1.65;;
41643;SDS011;44236;48.098;11.582;2023-08-01T18:33:11;3.63;;;0.70;;
41643;SDS011;44236;48.098;11.582;2023-08-01T18:35:40;6.70;;;1.30;;
41643;SDS011;44236;48.098;11.582;2023-08-01T18:38:09;3.42;;;1.05;;
41643;SDS011;44236;48.098;11.582;2023-08-01T18:40:35;3.72;;;1.10;;
41643;SDS011;44236;48.098;11.582;2023-08-01T18:43:05;2.92;;;1.05;;
41643;SDS011;44236;48.098;11.582;2023-08-01T18:45:31;4.72;;;1.10;;
41643;SDS011;44236;48.098;11.582;2023-08-01T18:47:56;1.95;;;0.90;;
41643;SDS011;44236;48.098;11.582;2023-08-01T18:50:22;3.90;;;1.02;;
41643;SDS011;44236;48.098;11.582;2023-08-01T18:52:48;2.83;;;0.95;;
41643;SDS011;44236;48.098;11.582;2023-08-01T18:55:17;4.72;;;1.20;;
41643;SDS011;44236;48.098;11.582;2023-08-01T18:57:43;2.90;;;1.23;;
41643;SDS011;44236;48.098;11.582;2023-08-01T19:00:09;5.88;;;1.60;;
41643;SDS011;44236;48.098;11.582;2023-08-01T19:02:35;5.13;;;1.38;;
41643;SDS011;44236;48.098;11.582;2023-08-01T19:05:05;5.75;;;1.40;;
41643;SDS011;44236;48.098;11.582;2023-08-01T19:07:31;3.78;;;1.38;;
41643;SDS011;44236;48.098;11.582;2023-08-01T19:09:57;1.92;;;1.10;;
41643;SDS011;44236;48.098;11.582;2023-08-01T19:12:23;4.68;;;1.98;;
41643;SDS011;44236;48.098;11.582;2023-08-01T19:14:48;3.42;;;1.33;;
41643;SDS011;44236;48.098;11.582;2023-08-01T19:17:14;2.25;;;1.05;;
41643;SDS011;44236;48.098;11.582;2023-08-01T19:19:40;2.30;;;1.02;;
41643;SDS011;44236;48.098;11.582;2023-08-01T19:22:07;2.33;;;0.88;;
41643;SDS011;44236;48.098;11.582;2023-08-01T19:24:33;4.90;;;1.50;;
41643;SDS011;44236;48.098;11.582;2023-08-01T19:26:58;2.33;;;1.00;;
41643;SDS011;44236;48.098;11.582;2023-08-01T19:29:24;4.30;;;1.10;;
41643;SDS011;44236;48.098;11.582;2023-08-01T19:31:50;3.97;;;1.00;;
41643;SDS011;44236;48.098;11.582;2023-08-01T19:34:16;2.92;;;0.93;;
41643;SDS011;44236;48.098;11.582;2023-08-01T19:36:42;5.50;;;1.20;;
41643;SDS011;44236;48.098;11.582;2023-08-01T19:39:10;2.05;;;1.00;;
41643;SDS011;44236;48.098;11.582;2023-08-01T19:41:38;1.92;;;1.05;;
41643;SDS011;44236;48.098;11.582;2023-08-01T19:44:04;2.13;;;0.90;;
41643;SDS011;44236;48.098;11.582;2023-08-01T19:46:31;3.80;;;0.93;;
41643;SDS011;44236;48.098;11.582;2023-08-01T19:48:56;7.05;;;1.17;;
41643;SDS011;44236;48.098;11.582;2023-08-01T19:51:22;2.75;;;1.27;;
41643;SDS011;44236;48.098;11.582;2023-08-01T19:53:49;4.25;;;1.05;;
41643;SDS011;44236;48.098;11.582;2023-08-01T19:56:14;1.63;;;0.80;;
41643;SDS011;44236;48.098;11.582;2023-08-01T19:58:40;2.08;;;0.98;;
41643;SDS011;44236;48.098;11.582;2023-08-01T20:01:07;3.00;;;1.10;;
41643;SDS011;44236;48.098;11.582;2023-08-01T20:03:33;3.53;;;1.10;;
41643;SDS011;44236;48.098;11.582;2023-08-01T20:05:59;2.25;;;0.95;;
41643;SDS011;44236;48.098;11.582;2023-08-01T20:08:25;2.22;;;1.00;;
41643;SDS011;44236;48.098;11.582;2023-08-01T20:10:57;2.05;;;0.95;;